Aviation Digital Data Service (ADDS)

Output produced by METARs form (1744 UTC 24 June 2019)
found at http://www.aviationweather.gov/metar/data/
 
METAR text: ROAH 241730Z 16003KT 9999 FEW015 BKN050 26/24 Q1009 RMK 2CU015 6SC050 A2982
Conditions at: ROAH (NAHA (CIV/JASDF), JP) observed 1730 UTC 24 June 2019
Temperature: 26.0°C (79°F)
Dewpoint: 24.0°C (75°F) [RH = 89%]
Pressure (altimeter): 29.79 inches Hg (1009.0 mb)
Winds: from the SSE (160 degrees) at 3 MPH (3 knots; 1.5 m/s)
Visibility: 6 or more miles (10+ km)
Ceiling: 5000 feet AGL
Clouds: few clouds at 1500 feet AGL
broken clouds at 5000 feet AGL
Weather: no significant weather observed at this time

METAR text: ROAH 241700Z 14004KT 9999 FEW015 BKN080 26/24 Q1010 RMK 1CU015 6AC080 A2983
Conditions at: ROAH (NAHA (CIV/JASDF), JP) observed 1700 UTC 24 June 2019
Temperature: 26.0°C (79°F)
Dewpoint: 24.0°C (75°F) [RH = 89%]
Pressure (altimeter): 29.82 inches Hg (1010.0 mb)
Winds: from the SE (140 degrees) at 5 MPH (4 knots; 2.1 m/s)
Visibility: 6 or more miles (10+ km)
Ceiling: 8000 feet AGL
Clouds: few clouds at 1500 feet AGL
broken clouds at 8000 feet AGL
Weather: no significant weather observed at this time

METAR text: ROAH 241630Z 15006KT 9999 FEW015 BKN090 26/24 Q1010 RMK 1CU015 6AC090 A2984
Conditions at: ROAH (NAHA (CIV/JASDF), JP) observed 1630 UTC 24 June 2019
Temperature: 26.0°C (79°F)
Dewpoint: 24.0°C (75°F) [RH = 89%]
Pressure (altimeter): 29.82 inches Hg (1010.0 mb)
Winds: from the SSE (150 degrees) at 7 MPH (6 knots; 3.1 m/s)
Visibility: 6 or more miles (10+ km)
Ceiling: 9000 feet AGL
Clouds: few clouds at 1500 feet AGL
broken clouds at 9000 feet AGL
Weather: no significant weather observed at this time

METAR text: ROAH 241600Z 15005KT 9999 FEW015 BKN090 26/24 Q1010 RMK 1CU015 6AC090 A2983
Conditions at: ROAH (NAHA (CIV/JASDF), JP) observed 1600 UTC 24 June 2019
Temperature: 26.0°C (79°F)
Dewpoint: 24.0°C (75°F) [RH = 89%]
Pressure (altimeter): 29.82 inches Hg (1010.0 mb)
Winds: from the SSE (150 degrees) at 6 MPH (5 knots; 2.6 m/s)
Visibility: 6 or more miles (10+ km)
Ceiling: 9000 feet AGL
Clouds: few clouds at 1500 feet AGL
broken clouds at 9000 feet AGL
Weather: no significant weather observed at this time

METAR text: ROAH 241530Z 16004KT 9999 FEW015 BKN080 26/24 Q1010 RMK 1CU015 6AC080 A2983
Conditions at: ROAH (NAHA (CIV/JASDF), JP) observed 1530 UTC 24 June 2019
Temperature: 26.0°C (79°F)
Dewpoint: 24.0°C (75°F) [RH = 89%]
Pressure (altimeter): 29.82 inches Hg (1010.0 mb)
Winds: from the SSE (160 degrees) at 5 MPH (4 knots; 2.1 m/s)
Visibility: 6 or more miles (10+ km)
Ceiling: 8000 feet AGL
Clouds: few clouds at 1500 feet AGL
broken clouds at 8000 feet AGL
Weather: no significant weather observed at this time

METAR text: ROAH 241500Z 16003KT 9999 -SHRA FEW015 BKN060 26/24 Q1010 RMK 1CU015 6SC060 A2983
Conditions at: ROAH (NAHA (CIV/JASDF), JP) observed 1500 UTC 24 June 2019
Temperature: 26.0°C (79°F)
Dewpoint: 24.0°C (75°F) [RH = 89%]
Pressure (altimeter): 29.82 inches Hg (1010.0 mb)
Winds: from the SSE (160 degrees) at 3 MPH (3 knots; 1.5 m/s)
Visibility: 6 or more miles (10+ km)
Ceiling: 6000 feet AGL
Clouds: few clouds at 1500 feet AGL
broken clouds at 6000 feet AGL
Weather: -SHRA  (light rain showers)

METAR text: ROAH 241430Z 15004KT 9999 -SHRA FEW015 BKN060 26/24 Q1010 RMK 1CU015 6SC060 A2984
Conditions at: ROAH (NAHA (CIV/JASDF), JP) observed 1430 UTC 24 June 2019
Temperature: 26.0°C (79°F)
Dewpoint: 24.0°C (75°F) [RH = 89%]
Pressure (altimeter): 29.82 inches Hg (1010.0 mb)
Winds: from the SSE (150 degrees) at 5 MPH (4 knots; 2.1 m/s)
Visibility: 6 or more miles (10+ km)
Ceiling: 6000 feet AGL
Clouds: few clouds at 1500 feet AGL
broken clouds at 6000 feet AGL
Weather: -SHRA  (light rain showers)

METAR text: ROAH 241400Z 14004KT 9999 FEW015 BKN060 26/24 Q1010 RMK 1CU015 6SC060 A2985
Conditions at: ROAH (NAHA (CIV/JASDF), JP) observed 1400 UTC 24 June 2019
Temperature: 26.0°C (79°F)
Dewpoint: 24.0°C (75°F) [RH = 89%]
Pressure (altimeter): 29.82 inches Hg (1010.0 mb)
Winds: from the SE (140 degrees) at 5 MPH (4 knots; 2.1 m/s)
Visibility: 6 or more miles (10+ km)
Ceiling: 6000 feet AGL
Clouds: few clouds at 1500 feet AGL
broken clouds at 6000 feet AGL
Weather: no significant weather observed at this time

METAR text: ROAH 241330Z 15004KT 9999 FEW015 BKN060 26/24 Q1010 RMK 1CU015 6SC060 A2984
Conditions at: ROAH (NAHA (CIV/JASDF), JP) observed 1330 UTC 24 June 2019
Temperature: 26.0°C (79°F)
Dewpoint: 24.0°C (75°F) [RH = 89%]
Pressure (altimeter): 29.82 inches Hg (1010.0 mb)
Winds: from the SSE (150 degrees) at 5 MPH (4 knots; 2.1 m/s)
Visibility: 6 or more miles (10+ km)
Ceiling: 6000 feet AGL
Clouds: few clouds at 1500 feet AGL
broken clouds at 6000 feet AGL
Weather: no significant weather observed at this time

METAR text: ROAH 241300Z VRB02KT 9999 FEW015 SCT060 BKN140 25/24 Q1010 RMK 1CU015 3SC060 6AC140 A2983
Conditions at: ROAH (NAHA (CIV/JASDF), JP) observed 1300 UTC 24 June 2019
Temperature: 25.0°C (77°F)
Dewpoint: 24.0°C (75°F) [RH = 94%]
Pressure (altimeter): 29.82 inches Hg (1010.0 mb)
Winds: variable direction winds at 2 MPH (2 knots; 1.0 m/s)
Visibility: 6 or more miles (10+ km)
Ceiling: 14000 feet AGL
Clouds: few clouds at 1500 feet AGL
scattered clouds at 6000 feet AGL
broken clouds at 14000 feet AGL
Weather: no significant weather observed at this time

METAR text: ROAH 241230Z 32002KT 9999 FEW015 BKN140 25/24 Q1010 RMK 1CU015 6AC140 A2982
Conditions at: ROAH (NAHA (CIV/JASDF), JP) observed 1230 UTC 24 June 2019
Temperature: 25.0°C (77°F)
Dewpoint: 24.0°C (75°F) [RH = 94%]
Pressure (altimeter): 29.82 inches Hg (1010.0 mb)
Winds: from the NW (320 degrees) at 2 MPH (2 knots; 1.0 m/s)
Visibility: 6 or more miles (10+ km)
Ceiling: 14000 feet AGL
Clouds: few clouds at 1500 feet AGL
broken clouds at 14000 feet AGL
Weather: no significant weather observed at this time

METAR text: ROAH 241200Z 35003KT 320V040 9999 FEW015 BKN130 25/24 Q1009 RMK 1CU015 6AC130 A2981
Conditions at: ROAH (NAHA (CIV/JASDF), JP) observed 1200 UTC 24 June 2019
Temperature: 25.0°C (77°F)
Dewpoint: 24.0°C (75°F) [RH = 94%]
Pressure (altimeter): 29.79 inches Hg (1009.0 mb)
Winds: from the N (350 degrees) at 3 MPH (3 knots; 1.5 m/s)
Visibility: 6 or more miles (10+ km)
Ceiling: 13000 feet AGL
Clouds: few clouds at 1500 feet AGL
broken clouds at 13000 feet AGL
Weather: no significant weather observed at this time

METAR text: ROAH 241130Z VRB02KT 9999 FEW014 BKN100 26/24 Q1009 RMK 2CU014 6AC100 A2982
Conditions at: ROAH (NAHA (CIV/JASDF), JP) observed 1130 UTC 24 June 2019
Temperature: 26.0°C (79°F)
Dewpoint: 24.0°C (75°F) [RH = 89%]
Pressure (altimeter): 29.79 inches Hg (1009.0 mb)
Winds: variable direction winds at 2 MPH (2 knots; 1.0 m/s)
Visibility: 6 or more miles (10+ km)
Ceiling: 10000 feet AGL
Clouds: few clouds at 1400 feet AGL
broken clouds at 10000 feet AGL
Weather: no significant weather observed at this time

METAR text: ROAH 241100Z 15003KT 070V200 9999 FEW014 SCT018 BKN080 26/24 Q1009 RMK 2CU014 4CU018 6AC080 A2980
Conditions at: ROAH (NAHA (CIV/JASDF), JP) observed 1100 UTC 24 June 2019
Temperature: 26.0°C (79°F)
Dewpoint: 24.0°C (75°F) [RH = 89%]
Pressure (altimeter): 29.79 inches Hg (1009.0 mb)
Winds: from the SSE (150 degrees) at 3 MPH (3 knots; 1.5 m/s)
Visibility: 6 or more miles (10+ km)
Ceiling: 8000 feet AGL
Clouds: few clouds at 1400 feet AGL
scattered clouds at 1800 feet AGL
broken clouds at 8000 feet AGL
Weather: no significant weather observed at this time

METAR text: ROAH 241030Z VRB02KT 9999 FEW012 BKN018 BKN080 26/24 Q1009 RMK 1CU012 5CU018 6AC080 A2980
Conditions at: ROAH (NAHA (CIV/JASDF), JP) observed 1030 UTC 24 June 2019
Temperature: 26.0°C (79°F)
Dewpoint: 24.0°C (75°F) [RH = 89%]
Pressure (altimeter): 29.79 inches Hg (1009.0 mb)
Winds: variable direction winds at 2 MPH (2 knots; 1.0 m/s)
Visibility: 6 or more miles (10+ km)
Ceiling: 1800 feet AGL
Clouds: few clouds at 1200 feet AGL
broken clouds at 1800 feet AGL
broken clouds at 8000 feet AGL
Weather: no significant weather observed at this time

METAR text: ROAH 241000Z 11003KT 070V170 9999 FEW013 SCT018 BKN080 26/24 Q1008 RMK 2CU013 4CU018 6AC080 A2979
Conditions at: ROAH (NAHA (CIV/JASDF), JP) observed 1000 UTC 24 June 2019
Temperature: 26.0°C (79°F)
Dewpoint: 24.0°C (75°F) [RH = 89%]
Pressure (altimeter): 29.76 inches Hg (1008.0 mb)
Winds: from the ESE (110 degrees) at 3 MPH (3 knots; 1.5 m/s)
Visibility: 6 or more miles (10+ km)
Ceiling: 8000 feet AGL
Clouds: few clouds at 1300 feet AGL
scattered clouds at 1800 feet AGL
broken clouds at 8000 feet AGL
Weather: no significant weather observed at this time

METAR text: ROAH 240930Z 12003KT 070V190 9999 FEW013 SCT018 BKN080 26/24 Q1008 RMK 2CU013 4CU018 6AC080 A2979
Conditions at: ROAH (NAHA (CIV/JASDF), JP) observed 0930 UTC 24 June 2019
Temperature: 26.0°C (79°F)
Dewpoint: 24.0°C (75°F) [RH = 89%]
Pressure (altimeter): 29.76 inches Hg (1008.0 mb)
Winds: from the ESE (120 degrees) at 3 MPH (3 knots; 1.5 m/s)
Visibility: 6 or more miles (10+ km)
Ceiling: 8000 feet AGL
Clouds: few clouds at 1300 feet AGL
scattered clouds at 1800 feet AGL
broken clouds at 8000 feet AGL
Weather: no significant weather observed at this time

METAR text: ROAH 240900Z VRB02KT 9999 FEW010 BKN018 BKN080 26/23 Q1008 RMK 1CU010 5CU018 6AC080 A2979
Conditions at: ROAH (NAHA (CIV/JASDF), JP) observed 0900 UTC 24 June 2019
Temperature: 26.0°C (79°F)
Dewpoint: 23.0°C (73°F) [RH = 84%]
Pressure (altimeter): 29.76 inches Hg (1008.0 mb)
Winds: variable direction winds at 2 MPH (2 knots; 1.0 m/s)
Visibility: 6 or more miles (10+ km)
Ceiling: 1800 feet AGL
Clouds: few clouds at 1000 feet AGL
broken clouds at 1800 feet AGL
broken clouds at 8000 feet AGL
Weather: no significant weather observed at this time

METAR text: ROAH 240830Z 12004KT 070V140 9999 FEW010 BKN018 BKN080 26/24 Q1008 RMK 1CU010 5CU018 6AC080 A2979
Conditions at: ROAH (NAHA (CIV/JASDF), JP) observed 0830 UTC 24 June 2019
Temperature: 26.0°C (79°F)
Dewpoint: 24.0°C (75°F) [RH = 89%]
Pressure (altimeter): 29.76 inches Hg (1008.0 mb)
Winds: from the ESE (120 degrees) at 5 MPH (4 knots; 2.1 m/s)
Visibility: 6 or more miles (10+ km)
Ceiling: 1800 feet AGL
Clouds: few clouds at 1000 feet AGL
broken clouds at 1800 feet AGL
broken clouds at 8000 feet AGL
Weather: no significant weather observed at this time

METAR text: ROAH 240800Z 07005KT 030V160 9999 FEW010 SCT018 BKN080 26/23 Q1008 RMK 1CU010 3CU018 6AC080 A2978
Conditions at: ROAH (NAHA (CIV/JASDF), JP) observed 0800 UTC 24 June 2019
Temperature: 26.0°C (79°F)
Dewpoint: 23.0°C (73°F) [RH = 84%]
Pressure (altimeter): 29.76 inches Hg (1008.0 mb)
Winds: from the ENE (70 degrees) at 6 MPH (5 knots; 2.6 m/s)
Visibility: 6 or more miles (10+ km)
Ceiling: 8000 feet AGL
Clouds: few clouds at 1000 feet AGL
scattered clouds at 1800 feet AGL
broken clouds at 8000 feet AGL
Weather: no significant weather observed at this time

METAR text: ROAH 240730Z 08005KT 040V140 9999 FEW010 SCT018 BKN080 26/23 Q1008 RMK 1CU010 4CU018 5AC080 A2977
Conditions at: ROAH (NAHA (CIV/JASDF), JP) observed 0730 UTC 24 June 2019
Temperature: 26.0°C (79°F)
Dewpoint: 23.0°C (73°F) [RH = 84%]
Pressure (altimeter): 29.76 inches Hg (1008.0 mb)
Winds: from the E (80 degrees) at 6 MPH (5 knots; 2.6 m/s)
Visibility: 6 or more miles (10+ km)
Ceiling: 8000 feet AGL
Clouds: few clouds at 1000 feet AGL
scattered clouds at 1800 feet AGL
broken clouds at 8000 feet AGL
Weather: no significant weather observed at this time

METAR text: ROAH 240700Z 08005KT 030V150 9999 FEW010 BKN014 BKN080 26/23 Q1008 RMK 2CU010 5CU014 6AC080 A2977
Conditions at: ROAH (NAHA (CIV/JASDF), JP) observed 0700 UTC 24 June 2019
Temperature: 26.0°C (79°F)
Dewpoint: 23.0°C (73°F) [RH = 84%]
Pressure (altimeter): 29.76 inches Hg (1008.0 mb)
Winds: from the E (80 degrees) at 6 MPH (5 knots; 2.6 m/s)
Visibility: 6 or more miles (10+ km)
Ceiling: 1400 feet AGL
Clouds: few clouds at 1000 feet AGL
broken clouds at 1400 feet AGL
broken clouds at 8000 feet AGL
Weather: no significant weather observed at this time

METAR text: ROAH 240630Z 05006KT 010V110 9999 FEW010 SCT014 BKN080 26/23 Q1008 RMK 1CU010 3CU014 6AC080 A2977
Conditions at: ROAH (NAHA (CIV/JASDF), JP) observed 0630 UTC 24 June 2019
Temperature: 26.0°C (79°F)
Dewpoint: 23.0°C (73°F) [RH = 84%]
Pressure (altimeter): 29.76 inches Hg (1008.0 mb)
Winds: from the NE (50 degrees) at 7 MPH (6 knots; 3.1 m/s)
Visibility: 6 or more miles (10+ km)
Ceiling: 8000 feet AGL
Clouds: few clouds at 1000 feet AGL
scattered clouds at 1400 feet AGL
broken clouds at 8000 feet AGL
Weather: no significant weather observed at this time

METAR text: ROAH 240600Z 07005KT 020V160 9999 FEW010 SCT017 BKN060 26/23 Q1008 RMK 1CU010 4CU017 5SC060 A2977
Conditions at: ROAH (NAHA (CIV/JASDF), JP) observed 0600 UTC 24 June 2019
Temperature: 26.0°C (79°F)
Dewpoint: 23.0°C (73°F) [RH = 84%]
Pressure (altimeter): 29.76 inches Hg (1008.0 mb)
Winds: from the ENE (70 degrees) at 6 MPH (5 knots; 2.6 m/s)
Visibility: 6 or more miles (10+ km)
Ceiling: 6000 feet AGL
Clouds: few clouds at 1000 feet AGL
scattered clouds at 1700 feet AGL
broken clouds at 6000 feet AGL
Weather: no significant weather observed at this time

METAR text: ROAH 240530Z 09004KT 030V170 9999 FEW010 SCT060 BKN140 25/23 Q1008 RMK 2CU010 4SC060 7AC140 A2978
Conditions at: ROAH (NAHA (CIV/JASDF), JP) observed 0530 UTC 24 June 2019
Temperature: 25.0°C (77°F)
Dewpoint: 23.0°C (73°F) [RH = 89%]
Pressure (altimeter): 29.76 inches Hg (1008.0 mb)
Winds: from the E (90 degrees) at 5 MPH (4 knots; 2.1 m/s)
Visibility: 6 or more miles (10+ km)
Ceiling: 14000 feet AGL
Clouds: few clouds at 1000 feet AGL
scattered clouds at 6000 feet AGL
broken clouds at 14000 feet AGL
Weather: no significant weather observed at this time

METAR text: ROAH 240500Z 08004KT 360V160 9999 FEW009 BKN140 25/23 Q1008 RMK 2CU009 7AC140 A2978
Conditions at: ROAH (NAHA (CIV/JASDF), JP) observed 0500 UTC 24 June 2019
Temperature: 25.0°C (77°F)
Dewpoint: 23.0°C (73°F) [RH = 89%]
Pressure (altimeter): 29.76 inches Hg (1008.0 mb)
Winds: from the E (80 degrees) at 5 MPH (4 knots; 2.1 m/s)
Visibility: 6 or more miles (10+ km)
Ceiling: 14000 feet AGL
Clouds: few clouds at 900 feet AGL
broken clouds at 14000 feet AGL
Weather: no significant weather observed at this time

METAR text: ROAH 240430Z 07005KT 030V130 9999 FEW007 SCT009 BKN140 25/23 Q1008 RMK 1ST007 3CU009 7AC140 A2978
Conditions at: ROAH (NAHA (CIV/JASDF), JP) observed 0430 UTC 24 June 2019
Temperature: 25.0°C (77°F)
Dewpoint: 23.0°C (73°F) [RH = 89%]
Pressure (altimeter): 29.76 inches Hg (1008.0 mb)
Winds: from the ENE (70 degrees) at 6 MPH (5 knots; 2.6 m/s)
Visibility: 6 or more miles (10+ km)
Ceiling: 14000 feet AGL
Clouds: few clouds at 700 feet AGL
scattered clouds at 900 feet AGL
broken clouds at 14000 feet AGL
Weather: no significant weather observed at this time

METAR text: ROAH 240400Z 06006KT 9999 -SHRA FEW009 SCT050 BKN080 24/23 Q1008 RMK 2CU009 4SC050 6AC080 A2978
Conditions at: ROAH (NAHA (CIV/JASDF), JP) observed 0400 UTC 24 June 2019
Temperature: 24.0°C (75°F)
Dewpoint: 23.0°C (73°F) [RH = 94%]
Pressure (altimeter): 29.76 inches Hg (1008.0 mb)
Winds: from the ENE (60 degrees) at 7 MPH (6 knots; 3.1 m/s)
Visibility: 6 or more miles (10+ km)
Ceiling: 8000 feet AGL
Clouds: few clouds at 900 feet AGL
scattered clouds at 5000 feet AGL
broken clouds at 8000 feet AGL
Weather: -SHRA  (light rain showers)

METAR text: ROAH 240330Z 05007KT 020V170 9999 -SHRA FEW010 BKN045 BKN080 24/23 Q1008 RMK 2CU010 5SC045 7AC080 A2979
Conditions at: ROAH (NAHA (CIV/JASDF), JP) observed 0330 UTC 24 June 2019
Temperature: 24.0°C (75°F)
Dewpoint: 23.0°C (73°F) [RH = 94%]
Pressure (altimeter): 29.76 inches Hg (1008.0 mb)
Winds: from the NE (50 degrees) at 8 MPH (7 knots; 3.6 m/s)
Visibility: 6 or more miles (10+ km)
Ceiling: 4500 feet AGL
Clouds: few clouds at 1000 feet AGL
broken clouds at 4500 feet AGL
broken clouds at 8000 feet AGL
Weather: -SHRA  (light rain showers)

METAR text: ROAH 240300Z 06008KT 040V100 9999 -SHRA FEW010 SCT020 BKN045 24/22 Q1009 RMK 1CU010 3CU020 6SC045 A2980
Conditions at: ROAH (NAHA (CIV/JASDF), JP) observed 0300 UTC 24 June 2019
Temperature: 24.0°C (75°F)
Dewpoint: 22.0°C (72°F) [RH = 89%]
Pressure (altimeter): 29.79 inches Hg (1009.0 mb)
Winds: from the ENE (60 degrees) at 9 MPH (8 knots; 4.1 m/s)
Visibility: 6 or more miles (10+ km)
Ceiling: 4500 feet AGL
Clouds: few clouds at 1000 feet AGL
scattered clouds at 2000 feet AGL
broken clouds at 4500 feet AGL
Weather: -SHRA  (light rain showers)

METAR text: ROAH 240230Z 05007KT 9999 -SHRA SCT020 BKN045 24/22 Q1009 RMK 4CU020 7SC045 A2981
Conditions at: ROAH (NAHA (CIV/JASDF), JP) observed 0230 UTC 24 June 2019
Temperature: 24.0°C (75°F)
Dewpoint: 22.0°C (72°F) [RH = 89%]
Pressure (altimeter): 29.79 inches Hg (1009.0 mb)
Winds: from the NE (50 degrees) at 8 MPH (7 knots; 3.6 m/s)
Visibility: 6 or more miles (10+ km)
Ceiling: 4500 feet AGL
Clouds: scattered clouds at 2000 feet AGL
broken clouds at 4500 feet AGL
Weather: -SHRA  (light rain showers)

METAR text: ROAH 240200Z 05008KT 9999 FEW007 SCT010 BKN020 24/22 Q1009 RMK 2ST007 3CU010 7CU020 A2981
Conditions at: ROAH (NAHA (CIV/JASDF), JP) observed 0200 UTC 24 June 2019
Temperature: 24.0°C (75°F)
Dewpoint: 22.0°C (72°F) [RH = 89%]
Pressure (altimeter): 29.79 inches Hg (1009.0 mb)
Winds: from the NE (50 degrees) at 9 MPH (8 knots; 4.1 m/s)
Visibility: 6 or more miles (10+ km)
Ceiling: 2000 feet AGL
Clouds: few clouds at 700 feet AGL
scattered clouds at 1000 feet AGL
broken clouds at 2000 feet AGL
Weather: no significant weather observed at this time

METAR text: ROAH 240130Z 03008KT 9999 VCSH FEW007 BKN010 BKN020 24/22 Q1009 RMK 1ST007 6CU010 7CU020 A2980
Conditions at: ROAH (NAHA (CIV/JASDF), JP) observed 0130 UTC 24 June 2019
Temperature: 24.0°C (75°F)
Dewpoint: 22.0°C (72°F) [RH = 89%]
Pressure (altimeter): 29.79 inches Hg (1009.0 mb)
Winds: from the NNE (30 degrees) at 9 MPH (8 knots; 4.1 m/s)
Visibility: 6 or more miles (10+ km)
Ceiling: 1000 feet AGL
Clouds: few clouds at 700 feet AGL
broken clouds at 1000 feet AGL
broken clouds at 2000 feet AGL
Weather: VCSH  (showers in vicinity)

METAR text: ROAH 240100Z 02010KT 9999 -SHRA FEW007 BKN010 BKN020 23/22 Q1009 RMK 1ST007 5CU010 7CU020 A2980
Conditions at: ROAH (NAHA (CIV/JASDF), JP) observed 0100 UTC 24 June 2019
Temperature: 23.0°C (73°F)
Dewpoint: 22.0°C (72°F) [RH = 94%]
Pressure (altimeter): 29.79 inches Hg (1009.0 mb)
Winds: from the NNE (20 degrees) at 12 MPH (10 knots; 5.1 m/s)
Visibility: 6 or more miles (10+ km)
Ceiling: 1000 feet AGL
Clouds: few clouds at 700 feet AGL
broken clouds at 1000 feet AGL
broken clouds at 2000 feet AGL
Weather: -SHRA  (light rain showers)

METAR text: ROAH 240030Z 02010KT 9999 -SHRA FEW007 BKN010 BKN020 23/22 Q1009 RMK 1ST007 5CU010 7CU020 A2979
Conditions at: ROAH (NAHA (CIV/JASDF), JP) observed 0030 UTC 24 June 2019
Temperature: 23.0°C (73°F)
Dewpoint: 22.0°C (72°F) [RH = 94%]
Pressure (altimeter): 29.79 inches Hg (1009.0 mb)
Winds: from the NNE (20 degrees) at 12 MPH (10 knots; 5.1 m/s)
Visibility: 6 or more miles (10+ km)
Ceiling: 1000 feet AGL
Clouds: few clouds at 700 feet AGL
broken clouds at 1000 feet AGL
broken clouds at 2000 feet AGL
Weather: -SHRA  (light rain showers)

METAR text: ROAH 240000Z 03006KT 350V060 9999 -SHRA SCT010 BKN015 BKN020 24/22 Q1008 RMK 3CU010 5CU015 7CU020 A2977
Conditions at: ROAH (NAHA (CIV/JASDF), JP) observed 0000 UTC 24 June 2019
Temperature: 24.0°C (75°F)
Dewpoint: 22.0°C (72°F) [RH = 89%]
Pressure (altimeter): 29.76 inches Hg (1008.0 mb)
Winds: from the NNE (30 degrees) at 7 MPH (6 knots; 3.1 m/s)
Visibility: 6 or more miles (10+ km)
Ceiling: 1500 feet AGL
Clouds: scattered clouds at 1000 feet AGL
broken clouds at 1500 feet AGL
broken clouds at 2000 feet AGL
Weather: -SHRA  (light rain showers)

METAR text: ROAH 232330Z 07008KT 030V100 9999 -SHRA FEW007 SCT009 BKN020 23/22 Q1007 RMK 1ST007 3CU009 5CU020 A2976
Conditions at: ROAH (NAHA (CIV/JASDF), JP) observed 2330 UTC 23 June 2019
Temperature: 23.0°C (73°F)
Dewpoint: 22.0°C (72°F) [RH = 94%]
Pressure (altimeter): 29.73 inches Hg (1007.0 mb)
Winds: from the ENE (70 degrees) at 9 MPH (8 knots; 4.1 m/s)
Visibility: 6 or more miles (10+ km)
Ceiling: 2000 feet AGL
Clouds: few clouds at 700 feet AGL
scattered clouds at 900 feet AGL
broken clouds at 2000 feet AGL
Weather: -SHRA  (light rain showers)

METAR text: ROAH 232318Z 01008KT 340V060 9999 -SHRA FEW008 BKN010 BKN030 23/22 Q1008 RMK 1ST008 5CU010 6SC030 A2977
Conditions at: ROAH (NAHA (CIV/JASDF), JP) observed 2318 UTC 23 June 2019
Temperature: 23.0°C (73°F)
Dewpoint: 22.0°C (72°F) [RH = 94%]
Pressure (altimeter): 29.76 inches Hg (1008.0 mb)
Winds: from the N (10 degrees) at 9 MPH (8 knots; 4.1 m/s)
Visibility: 6 or more miles (10+ km)
Ceiling: 1000 feet AGL
Clouds: few clouds at 800 feet AGL
broken clouds at 1000 feet AGL
broken clouds at 3000 feet AGL
Weather: -SHRA  (light rain showers)

METAR text: ROAH 232300Z 07010KT 040V100 9999 -SHRA FEW008 BKN025 BKN050 23/22 Q1007 RMK 1ST008 5CU025 6SC050 A2975
Conditions at: ROAH (NAHA (CIV/JASDF), JP) observed 2300 UTC 23 June 2019
Temperature: 23.0°C (73°F)
Dewpoint: 22.0°C (72°F) [RH = 94%]
Pressure (altimeter): 29.73 inches Hg (1007.0 mb)
Winds: from the ENE (70 degrees) at 12 MPH (10 knots; 5.1 m/s)
Visibility: 6 or more miles (10+ km)
Ceiling: 2500 feet AGL
Clouds: few clouds at 800 feet AGL
broken clouds at 2500 feet AGL
broken clouds at 5000 feet AGL
Weather: -SHRA  (light rain showers)

METAR text: ROAH 232235Z 07007KT 030V110 9999 -SHRA FEW008 BKN020 BKN030 23/22 Q1007 RMK 1ST008 5CU020 6CU030 A2976
Conditions at: ROAH (NAHA (CIV/JASDF), JP) observed 2235 UTC 23 June 2019
Temperature: 23.0°C (73°F)
Dewpoint: 22.0°C (72°F) [RH = 94%]
Pressure (altimeter): 29.73 inches Hg (1007.0 mb)
Winds: from the ENE (70 degrees) at 8 MPH (7 knots; 3.6 m/s)
Visibility: 6 or more miles (10+ km)
Ceiling: 2000 feet AGL
Clouds: few clouds at 800 feet AGL
broken clouds at 2000 feet AGL
broken clouds at 3000 feet AGL
Weather: -SHRA  (light rain showers)

METAR text: ROAH 232230Z 07005KT 020V120 4000 R36/1000VP1800U SHRA FEW008 BKN020 BKN030 23/22 Q1007
Conditions at: ROAH (NAHA (CIV/JASDF), JP) observed 2230 UTC 23 June 2019
Temperature: 23.0°C (73°F)
Dewpoint: 22.0°C (72°F) [RH = 94%]
Pressure (altimeter): 29.73 inches Hg (1007.0 mb)
Winds: from the ENE (70 degrees) at 6 MPH (5 knots; 2.6 m/s)
Visibility: 2.49 miles (4.01 km)
Ceiling: 2000 feet AGL
Clouds: few clouds at 800 feet AGL
broken clouds at 2000 feet AGL
broken clouds at 3000 feet AGL
Weather: SHRA  (rain showers)

METAR text: ROAH 232208Z 06010KT 5000 SHRA FEW006 BKN015 FEW030TCU BKN050 23/22 Q1007 RMK 1ST006 5CU015 2TCU030 6SC050 A2974 TCU 10KM SE MOV NE
Conditions at: ROAH (NAHA (CIV/JASDF), JP) observed 2208 UTC 23 June 2019
Temperature: 23.0°C (73°F)
Dewpoint: 22.0°C (72°F) [RH = 94%]
Pressure (altimeter): 29.73 inches Hg (1007.0 mb)
Winds: from the ENE (60 degrees) at 12 MPH (10 knots; 5.1 m/s)
Visibility: 3 miles ( 5 km)
Ceiling: 1500 feet AGL
Clouds: few clouds at 600 feet AGL
broken clouds at 1500 feet AGL
few clouds at 3000 feet AGL
broken clouds at 5000 feet AGL
Weather: SHRA  (rain showers)

METAR text: ROAH 232200Z 06010KT 2000 R36/1500VP1800U +SHRA FEW008 BKN015 BKN020 FEW030TCU 23/22 Q1007
Conditions at: ROAH (NAHA (CIV/JASDF), JP) observed 2200 UTC 23 June 2019
Temperature: 23.0°C (73°F)
Dewpoint: 22.0°C (72°F) [RH = 94%]
Pressure (altimeter): 29.73 inches Hg (1007.0 mb)
Winds: from the ENE (60 degrees) at 12 MPH (10 knots; 5.1 m/s)
Visibility: 1.24 miles (2.00 km)
Ceiling: 1500 feet AGL
Clouds: few clouds at 800 feet AGL
broken clouds at 1500 feet AGL
broken clouds at 2000 feet AGL
few clouds at 3000 feet AGL
Weather: +SHRA  (heavy rain showers)

METAR text: ROAH 232135Z 04010KT 2000 R36/1200VP1800D +SHRA FEW008 BKN015 BKN020 SCT030TCU 23/22 Q1007 RMK 1ST008 5CU015 6CU020 3TCU030 A2974 TCU OHD MOV NE RI++
Conditions at: ROAH (NAHA (CIV/JASDF), JP) observed 2135 UTC 23 June 2019
Temperature: 23.0°C (73°F)
Dewpoint: 22.0°C (72°F) [RH = 94%]
Pressure (altimeter): 29.73 inches Hg (1007.0 mb)
Winds: from the NE (40 degrees) at 12 MPH (10 knots; 5.1 m/s)
Visibility: 1.24 miles (2.00 km)
Ceiling: 1500 feet AGL
Clouds: few clouds at 800 feet AGL
broken clouds at 1500 feet AGL
broken clouds at 2000 feet AGL
scattered clouds at 3000 feet AGL
Weather: +SHRA  (heavy rain showers)

METAR text: ROAH 232130Z 04009KT 2000 R36/P1800N +SHRA FEW008 BKN010 BKN020 FEW030TCU 23/22 Q1007 RMK 1ST008 5CU010 6CU020 2TCU030 A2974 TCU 7KM SW MOV E
Conditions at: ROAH (NAHA (CIV/JASDF), JP) observed 2130 UTC 23 June 2019
Temperature: 23.0°C (73°F)
Dewpoint: 22.0°C (72°F) [RH = 94%]
Pressure (altimeter): 29.73 inches Hg (1007.0 mb)
Winds: from the NE (40 degrees) at 10 MPH (9 knots; 4.6 m/s)
Visibility: 1.24 miles (2.00 km)
Ceiling: 1000 feet AGL
Clouds: few clouds at 800 feet AGL
broken clouds at 1000 feet AGL
broken clouds at 2000 feet AGL
few clouds at 3000 feet AGL
Weather: +SHRA  (heavy rain showers)

METAR text: ROAH 232122Z 02010KT 2000 R36/P1800N +SHRA FEW008 BKN010 BKN020 FEW030TCU 23/22 Q1006 RMK 2ST008 5CU010 6CU020 2TCU030 A2973 TCU 7KM SW MOV E
Conditions at: ROAH (NAHA (CIV/JASDF), JP) observed 2122 UTC 23 June 2019
Temperature: 23.0°C (73°F)
Dewpoint: 22.0°C (72°F) [RH = 94%]
Pressure (altimeter): 29.70 inches Hg (1006.0 mb)
Winds: from the NNE (20 degrees) at 12 MPH (10 knots; 5.1 m/s)
Visibility: 1.24 miles (2.00 km)
Ceiling: 1000 feet AGL
Clouds: few clouds at 800 feet AGL
broken clouds at 1000 feet AGL
broken clouds at 2000 feet AGL
few clouds at 3000 feet AGL
Weather: +SHRA  (heavy rain showers)

METAR text: ROAH 232114Z 02007KT 3000 +SHRA FEW008 BKN010 BKN020 FEW025CB 23/22 Q1007 RMK 2ST008 5CU010 6CU020 2CB025 A2974 CB 7KM SE-SW MOV E
Conditions at: ROAH (NAHA (CIV/JASDF), JP) observed 2114 UTC 23 June 2019
Temperature: 23.0°C (73°F)
Dewpoint: 22.0°C (72°F) [RH = 94%]
Pressure (altimeter): 29.73 inches Hg (1007.0 mb)
Winds: from the NNE (20 degrees) at 8 MPH (7 knots; 3.6 m/s)
Visibility: 1.86 miles (2.99 km)
Ceiling: 1000 feet AGL
Clouds: few clouds at 800 feet AGL
broken clouds at 1000 feet AGL
broken clouds at 2000 feet AGL
few clouds at 2500 feet AGL
Weather: +SHRA  (heavy rain showers)

METAR text: ROAH 232100Z 05006KT 360V110 4000 SHRA FEW008 BKN010 FEW025TCU BKN030 23/22 Q1007 RMK 2ST008 5CU010 2TCU025 6CU030 A2974 TCU 6KM SE-W MOV E
Conditions at: ROAH (NAHA (CIV/JASDF), JP) observed 2100 UTC 23 June 2019
Temperature: 23.0°C (73°F)
Dewpoint: 22.0°C (72°F) [RH = 94%]
Pressure (altimeter): 29.73 inches Hg (1007.0 mb)
Winds: from the NE (50 degrees) at 7 MPH (6 knots; 3.1 m/s)
Visibility: 2.49 miles (4.01 km)
Ceiling: 1000 feet AGL
Clouds: few clouds at 800 feet AGL
broken clouds at 1000 feet AGL
few clouds at 2500 feet AGL
broken clouds at 3000 feet AGL
Weather: SHRA  (rain showers)

METAR text: ROAH 232030Z 03007KT 340V070 7000 SHRA FEW006 BKN015 FEW025TCU BKN030 23/22 Q1006 RMK 1ST006 5CU015 2TCU025 6CU030 A2973 TCU 8KM SE-S MOV E
Conditions at: ROAH (NAHA (CIV/JASDF), JP) observed 2030 UTC 23 June 2019
Temperature: 23.0°C (73°F)
Dewpoint: 22.0°C (72°F) [RH = 94%]
Pressure (altimeter): 29.70 inches Hg (1006.0 mb)
Winds: from the NNE (30 degrees) at 8 MPH (7 knots; 3.6 m/s)
Visibility: 4 miles ( 7 km)
Ceiling: 1500 feet AGL
Clouds: few clouds at 600 feet AGL
broken clouds at 1500 feet AGL
few clouds at 2500 feet AGL
broken clouds at 3000 feet AGL
Weather: SHRA  (rain showers)

METAR text: ROAH 232018Z 05007KT 7000 SHRA FEW006 BKN015 FEW025TCU BKN030 23/22 Q1006 RMK 1ST006 5CU015 2TCU025 6CU030 A2973 TCU 8KM SE MOV E
Conditions at: ROAH (NAHA (CIV/JASDF), JP) observed 2018 UTC 23 June 2019
Temperature: 23.0°C (73°F)
Dewpoint: 22.0°C (72°F) [RH = 94%]
Pressure (altimeter): 29.70 inches Hg (1006.0 mb)
Winds: from the NE (50 degrees) at 8 MPH (7 knots; 3.6 m/s)
Visibility: 4 miles ( 7 km)
Ceiling: 1500 feet AGL
Clouds: few clouds at 600 feet AGL
broken clouds at 1500 feet AGL
few clouds at 2500 feet AGL
broken clouds at 3000 feet AGL
Weather: SHRA  (rain showers)

METAR text: ROAH 232000Z 04009KT 7000 -RA FEW006 BKN020 BKN035 23/22 Q1006 RMK 1ST006 5CU020 7SC035 A2972
Conditions at: ROAH (NAHA (CIV/JASDF), JP) observed 2000 UTC 23 June 2019
Temperature: 23.0°C (73°F)
Dewpoint: 22.0°C (72°F) [RH = 94%]
Pressure (altimeter): 29.70 inches Hg (1006.0 mb)
Winds: from the NE (40 degrees) at 10 MPH (9 knots; 4.6 m/s)
Visibility: 4 miles ( 7 km)
Ceiling: 2000 feet AGL
Clouds: few clouds at 600 feet AGL
broken clouds at 2000 feet AGL
broken clouds at 3500 feet AGL
Weather: -RA  (light rain)

METAR text: ROAH 231949Z 02009KT 7000 SHRA FEW007 BKN015 BKN030 23/23 Q1006 RMK 1ST007 5CU015 7CU030 A2972
Conditions at: ROAH (NAHA (CIV/JASDF), JP) observed 1949 UTC 23 June 2019
Temperature: 23.0°C (73°F)
Dewpoint: 23.0°C (73°F) [RH = 100%]
Pressure (altimeter): 29.70 inches Hg (1006.0 mb)
Winds: from the NNE (20 degrees) at 10 MPH (9 knots; 4.6 m/s)
Visibility: 4 miles ( 7 km)
Ceiling: 1500 feet AGL
Clouds: few clouds at 700 feet AGL
broken clouds at 1500 feet AGL
broken clouds at 3000 feet AGL
Weather: SHRA  (rain showers)

METAR text: ROAH 231930Z 02008KT 9999 -RA FEW004 SCT006 BKN016 23/23 Q1006 RMK 1ST004 3ST006 5CU016 A2972
Conditions at: ROAH (NAHA (CIV/JASDF), JP) observed 1930 UTC 23 June 2019
Temperature: 23.0°C (73°F)
Dewpoint: 23.0°C (73°F) [RH = 100%]
Pressure (altimeter): 29.70 inches Hg (1006.0 mb)
Winds: from the NNE (20 degrees) at 9 MPH (8 knots; 4.1 m/s)
Visibility: 6 or more miles (10+ km)
Ceiling: 1600 feet AGL
Clouds: few clouds at 400 feet AGL
scattered clouds at 600 feet AGL
broken clouds at 1600 feet AGL
Weather: -RA  (light rain)

METAR text: ROAH 231900Z 04006KT 010V080 9999 -RA FEW004 SCT007 BKN020 24/23 Q1006 RMK 1ST004 3ST007 5CU020 A2972
Conditions at: ROAH (NAHA (CIV/JASDF), JP) observed 1900 UTC 23 June 2019
Temperature: 24.0°C (75°F)
Dewpoint: 23.0°C (73°F) [RH = 94%]
Pressure (altimeter): 29.70 inches Hg (1006.0 mb)
Winds: from the NE (40 degrees) at 7 MPH (6 knots; 3.1 m/s)
Visibility: 6 or more miles (10+ km)
Ceiling: 2000 feet AGL
Clouds: few clouds at 400 feet AGL
scattered clouds at 700 feet AGL
broken clouds at 2000 feet AGL
Weather: -RA  (light rain)

METAR text: ROAH 231830Z 03008KT 9999 -RA FEW003 SCT006 BKN020 24/23 Q1006 RMK 1ST003 3ST006 5CU020 A2972
Conditions at: ROAH (NAHA (CIV/JASDF), JP) observed 1830 UTC 23 June 2019
Temperature: 24.0°C (75°F)
Dewpoint: 23.0°C (73°F) [RH = 94%]
Pressure (altimeter): 29.70 inches Hg (1006.0 mb)
Winds: from the NNE (30 degrees) at 9 MPH (8 knots; 4.1 m/s)
Visibility: 6 or more miles (10+ km)
Ceiling: 2000 feet AGL
Clouds: few clouds at 300 feet AGL
scattered clouds at 600 feet AGL
broken clouds at 2000 feet AGL
Weather: -RA  (light rain)

METAR text: ROAH 231800Z 02011KT 9999 RA FEW005 SCT007 BKN015 24/23 Q1006 RMK 1ST005 3ST007 5CU015 A2971
Conditions at: ROAH (NAHA (CIV/JASDF), JP) observed 1800 UTC 23 June 2019
Temperature: 24.0°C (75°F)
Dewpoint: 23.0°C (73°F) [RH = 94%]
Pressure (altimeter): 29.70 inches Hg (1006.0 mb)
Winds: from the NNE (20 degrees) at 13 MPH (11 knots; 5.7 m/s)
Visibility: 6 or more miles (10+ km)
Ceiling: 1500 feet AGL
Clouds: few clouds at 500 feet AGL
scattered clouds at 700 feet AGL
broken clouds at 1500 feet AGL
Weather: RA  (moderate rain)

METAR text: ROAH 231730Z 08008KT 9999 -RA FEW007 SCT010 BKN040 24/23 Q1006 RMK 1ST007 4CU010 6SC040 A2972
Conditions at: ROAH (NAHA (CIV/JASDF), JP) observed 1730 UTC 23 June 2019
Temperature: 24.0°C (75°F)
Dewpoint: 23.0°C (73°F) [RH = 94%]
Pressure (altimeter): 29.70 inches Hg (1006.0 mb)
Winds: from the E (80 degrees) at 9 MPH (8 knots; 4.1 m/s)
Visibility: 6 or more miles (10+ km)
Ceiling: 4000 feet AGL
Clouds: few clouds at 700 feet AGL
scattered clouds at 1000 feet AGL
broken clouds at 4000 feet AGL
Weather: -RA  (light rain)

METAR text: ROAH 231700Z 07006KT 9999 -RA FEW006 SCT010 BKN040 24/23 Q1006 RMK 1ST006 3CU010 5SC040 A2971
Conditions at: ROAH (NAHA (CIV/JASDF), JP) observed 1700 UTC 23 June 2019
Temperature: 24.0°C (75°F)
Dewpoint: 23.0°C (73°F) [RH = 94%]
Pressure (altimeter): 29.70 inches Hg (1006.0 mb)
Winds: from the ENE (70 degrees) at 7 MPH (6 knots; 3.1 m/s)
Visibility: 6 or more miles (10+ km)
Ceiling: 4000 feet AGL
Clouds: few clouds at 600 feet AGL
scattered clouds at 1000 feet AGL
broken clouds at 4000 feet AGL
Weather: -RA  (light rain)

METAR text: ROAH 231630Z 08005KT 050V110 9999 VCSH FEW007 SCT020 BKN040 24/23 Q1006 RMK 1ST007 3CU020 5SC040 A2972
Conditions at: ROAH (NAHA (CIV/JASDF), JP) observed 1630 UTC 23 June 2019
Temperature: 24.0°C (75°F)
Dewpoint: 23.0°C (73°F) [RH = 94%]
Pressure (altimeter): 29.70 inches Hg (1006.0 mb)
Winds: from the E (80 degrees) at 6 MPH (5 knots; 2.6 m/s)
Visibility: 6 or more miles (10+ km)
Ceiling: 4000 feet AGL
Clouds: few clouds at 700 feet AGL
scattered clouds at 2000 feet AGL
broken clouds at 4000 feet AGL
Weather: VCSH  (showers in vicinity)

METAR text: ROAH 231600Z 10006KT 9999 -RA FEW020 BKN040 OVC080 23/22 Q1006 RMK 1CU020 5SC040 8AS080 A2973
Conditions at: ROAH (NAHA (CIV/JASDF), JP) observed 1600 UTC 23 June 2019
Temperature: 23.0°C (73°F)
Dewpoint: 22.0°C (72°F) [RH = 94%]
Pressure (altimeter): 29.70 inches Hg (1006.0 mb)
Winds: from the E (100 degrees) at 7 MPH (6 knots; 3.1 m/s)
Visibility: 6 or more miles (10+ km)
Ceiling: 4000 feet AGL
Clouds: few clouds at 2000 feet AGL
broken clouds at 4000 feet AGL
overcast cloud deck at 8000 feet AGL
Weather: -RA  (light rain)

METAR text: ROAH 231530Z 12006KT 9999 -RA FEW020 SCT050 OVC080 23/22 Q1007 RMK 1CU020 3SC050 8AS080 A2975
Conditions at: ROAH (NAHA (CIV/JASDF), JP) observed 1530 UTC 23 June 2019
Temperature: 23.0°C (73°F)
Dewpoint: 22.0°C (72°F) [RH = 94%]
Pressure (altimeter): 29.73 inches Hg (1007.0 mb)
Winds: from the ESE (120 degrees) at 7 MPH (6 knots; 3.1 m/s)
Visibility: 6 or more miles (10+ km)
Ceiling: 8000 feet AGL
Clouds: few clouds at 2000 feet AGL
scattered clouds at 5000 feet AGL
overcast cloud deck at 8000 feet AGL
Weather: -RA  (light rain)

METAR text: ROAH 231500Z VRB02KT 9999 RA FEW020 SCT030 BKN050 24/22 Q1007 RMK 1CU020 4CU030 6SC050 A2976
Conditions at: ROAH (NAHA (CIV/JASDF), JP) observed 1500 UTC 23 June 2019
Temperature: 24.0°C (75°F)
Dewpoint: 22.0°C (72°F) [RH = 89%]
Pressure (altimeter): 29.73 inches Hg (1007.0 mb)
Winds: variable direction winds at 2 MPH (2 knots; 1.0 m/s)
Visibility: 6 or more miles (10+ km)
Ceiling: 5000 feet AGL
Clouds: few clouds at 2000 feet AGL
scattered clouds at 3000 feet AGL
broken clouds at 5000 feet AGL
Weather: RA  (moderate rain)

METAR text: ROAH 231430Z 01003KT 340V070 9999 RA FEW020 SCT030 BKN050 24/22 Q1008 RMK 1CU020 3CU030 5SC050 A2977
Conditions at: ROAH (NAHA (CIV/JASDF), JP) observed 1430 UTC 23 June 2019
Temperature: 24.0°C (75°F)
Dewpoint: 22.0°C (72°F) [RH = 89%]
Pressure (altimeter): 29.76 inches Hg (1008.0 mb)
Winds: from the N (10 degrees) at 3 MPH (3 knots; 1.5 m/s)
Visibility: 6 or more miles (10+ km)
Ceiling: 5000 feet AGL
Clouds: few clouds at 2000 feet AGL
scattered clouds at 3000 feet AGL
broken clouds at 5000 feet AGL
Weather: RA  (moderate rain)

METAR text: ROAH 231400Z 09003KT 040V120 9999 -RA FEW015 BKN045 OVC080 24/22 Q1007 RMK 1CU015 5SC045 8AS080 A2976
Conditions at: ROAH (NAHA (CIV/JASDF), JP) observed 1400 UTC 23 June 2019
Temperature: 24.0°C (75°F)
Dewpoint: 22.0°C (72°F) [RH = 89%]
Pressure (altimeter): 29.73 inches Hg (1007.0 mb)
Winds: from the E (90 degrees) at 3 MPH (3 knots; 1.5 m/s)
Visibility: 6 or more miles (10+ km)
Ceiling: 4500 feet AGL
Clouds: few clouds at 1500 feet AGL
broken clouds at 4500 feet AGL
overcast cloud deck at 8000 feet AGL
Weather: -RA  (light rain)

METAR text: ROAH 231330Z 09004KT 060V140 9999 -RA FEW015 SCT045 OVC080 24/22 Q1008 RMK 1CU015 4SC045 8AS080 A2977
Conditions at: ROAH (NAHA (CIV/JASDF), JP) observed 1330 UTC 23 June 2019
Temperature: 24.0°C (75°F)
Dewpoint: 22.0°C (72°F) [RH = 89%]
Pressure (altimeter): 29.76 inches Hg (1008.0 mb)
Winds: from the E (90 degrees) at 5 MPH (4 knots; 2.1 m/s)
Visibility: 6 or more miles (10+ km)
Ceiling: 8000 feet AGL
Clouds: few clouds at 1500 feet AGL
scattered clouds at 4500 feet AGL
overcast cloud deck at 8000 feet AGL
Weather: -RA  (light rain)

METAR text: ROAH 231300Z 10004KT 050V140 9999 -RA FEW020 SCT050 BKN080 24/22 Q1007 RMK 1CU020 3SC050 6AS080 A2975
Conditions at: ROAH (NAHA (CIV/JASDF), JP) observed 1300 UTC 23 June 2019
Temperature: 24.0°C (75°F)
Dewpoint: 22.0°C (72°F) [RH = 89%]
Pressure (altimeter): 29.73 inches Hg (1007.0 mb)
Winds: from the E (100 degrees) at 5 MPH (4 knots; 2.1 m/s)
Visibility: 6 or more miles (10+ km)
Ceiling: 8000 feet AGL
Clouds: few clouds at 2000 feet AGL
scattered clouds at 5000 feet AGL
broken clouds at 8000 feet AGL
Weather: -RA  (light rain)

METAR text: ROAH 231230Z 10005KT 060V130 9999 -RA FEW008 BKN080 OVC140 24/22 Q1007 RMK 1ST008 5AS080 8AS140 A2975
Conditions at: ROAH (NAHA (CIV/JASDF), JP) observed 1230 UTC 23 June 2019
Temperature: 24.0°C (75°F)
Dewpoint: 22.0°C (72°F) [RH = 89%]
Pressure (altimeter): 29.73 inches Hg (1007.0 mb)
Winds: from the E (100 degrees) at 6 MPH (5 knots; 2.6 m/s)
Visibility: 6 or more miles (10+ km)
Ceiling: 8000 feet AGL
Clouds: few clouds at 800 feet AGL
broken clouds at 8000 feet AGL
overcast cloud deck at 14000 feet AGL
Weather: -RA  (light rain)

METAR text: ROAH 231200Z 12004KT 080V170 9999 -RA FEW008 BKN080 24/22 Q1007 RMK 1ST008 7AS080 A2974
Conditions at: ROAH (NAHA (CIV/JASDF), JP) observed 1200 UTC 23 June 2019
Temperature: 24.0°C (75°F)
Dewpoint: 22.0°C (72°F) [RH = 89%]
Pressure (altimeter): 29.73 inches Hg (1007.0 mb)
Winds: from the ESE (120 degrees) at 5 MPH (4 knots; 2.1 m/s)
Visibility: 6 or more miles (10+ km)
Ceiling: 8000 feet AGL
Clouds: few clouds at 800 feet AGL
broken clouds at 8000 feet AGL
Weather: -RA  (light rain)

METAR text: ROAH 231130Z 09003KT 040V130 9999 -RA FEW010 SCT030 OVC080 23/22 Q1007 RMK 1CU010 3CU030 8AS080 A2974
Conditions at: ROAH (NAHA (CIV/JASDF), JP) observed 1130 UTC 23 June 2019
Temperature: 23.0°C (73°F)
Dewpoint: 22.0°C (72°F) [RH = 94%]
Pressure (altimeter): 29.73 inches Hg (1007.0 mb)
Winds: from the E (90 degrees) at 3 MPH (3 knots; 1.5 m/s)
Visibility: 6 or more miles (10+ km)
Ceiling: 8000 feet AGL
Clouds: few clouds at 1000 feet AGL
scattered clouds at 3000 feet AGL
overcast cloud deck at 8000 feet AGL
Weather: -RA  (light rain)

METAR text: ROAH 231100Z 08006KT 030V130 9999 -SHRA FEW010 SCT030 BKN070 23/21 Q1007 RMK 1CU010 4CU030 7AS070 A2974
Conditions at: ROAH (NAHA (CIV/JASDF), JP) observed 1100 UTC 23 June 2019
Temperature: 23.0°C (73°F)
Dewpoint: 21.0°C (70°F) [RH = 89%]
Pressure (altimeter): 29.73 inches Hg (1007.0 mb)
Winds: from the E (80 degrees) at 7 MPH (6 knots; 3.1 m/s)
Visibility: 6 or more miles (10+ km)
Ceiling: 7000 feet AGL
Clouds: few clouds at 1000 feet AGL
scattered clouds at 3000 feet AGL
broken clouds at 7000 feet AGL
Weather: -SHRA  (light rain showers)

METAR text: ROAH 231030Z 08004KT 050V130 9999 -SHRA FEW015 BKN025 OVC080 24/22 Q1006 RMK 2CU015 5CU025 8AS080 A2973
Conditions at: ROAH (NAHA (CIV/JASDF), JP) observed 1030 UTC 23 June 2019
Temperature: 24.0°C (75°F)
Dewpoint: 22.0°C (72°F) [RH = 89%]
Pressure (altimeter): 29.70 inches Hg (1006.0 mb)
Winds: from the E (80 degrees) at 5 MPH (4 knots; 2.1 m/s)
Visibility: 6 or more miles (10+ km)
Ceiling: 2500 feet AGL
Clouds: few clouds at 1500 feet AGL
broken clouds at 2500 feet AGL
overcast cloud deck at 8000 feet AGL
Weather: -SHRA  (light rain showers)

METAR text: ROAH 231000Z 04005KT 010V100 9999 -RA FEW010 SCT016 OVC080 24/22 Q1006 RMK 1CU010 3CU016 8AS080 A2971
Conditions at: ROAH (NAHA (CIV/JASDF), JP) observed 1000 UTC 23 June 2019
Temperature: 24.0°C (75°F)
Dewpoint: 22.0°C (72°F) [RH = 89%]
Pressure (altimeter): 29.70 inches Hg (1006.0 mb)
Winds: from the NE (40 degrees) at 6 MPH (5 knots; 2.6 m/s)
Visibility: 6 or more miles (10+ km)
Ceiling: 8000 feet AGL
Clouds: few clouds at 1000 feet AGL
scattered clouds at 1600 feet AGL
overcast cloud deck at 8000 feet AGL
Weather: -RA  (light rain)

METAR text: ROAH 230930Z 04006KT 9999 -RA FEW010 OVC070 24/22 Q1005 RMK 2CU010 8AS070 A2970
Conditions at: ROAH (NAHA (CIV/JASDF), JP) observed 0930 UTC 23 June 2019
Temperature: 24.0°C (75°F)
Dewpoint: 22.0°C (72°F) [RH = 89%]
Pressure (altimeter): 29.68 inches Hg (1005.0 mb)
Winds: from the NE (40 degrees) at 7 MPH (6 knots; 3.1 m/s)
Visibility: 6 or more miles (10+ km)
Ceiling: 7000 feet AGL
Clouds: few clouds at 1000 feet AGL
overcast cloud deck at 7000 feet AGL
Weather: -RA  (light rain)

METAR text: ROAH 230900Z 03009KT 010V070 9999 -SHRA FEW010 SCT030 BKN050 24/22 Q1005 RMK 2CU010 4CU030 6SC050 A2969
Conditions at: ROAH (NAHA (CIV/JASDF), JP) observed 0900 UTC 23 June 2019
Temperature: 24.0°C (75°F)
Dewpoint: 22.0°C (72°F) [RH = 89%]
Pressure (altimeter): 29.68 inches Hg (1005.0 mb)
Winds: from the NNE (30 degrees) at 10 MPH (9 knots; 4.6 m/s)
Visibility: 6 or more miles (10+ km)
Ceiling: 5000 feet AGL
Clouds: few clouds at 1000 feet AGL
scattered clouds at 3000 feet AGL
broken clouds at 5000 feet AGL
Weather: -SHRA  (light rain showers)

METAR text: ROAH 230830Z 02011KT 9999 -SHRA SCT010 BKN050 BKN100 24/22 Q1005 RMK 4CU010 5SC050 7AC100 A2968
Conditions at: ROAH (NAHA (CIV/JASDF), JP) observed 0830 UTC 23 June 2019
Temperature: 24.0°C (75°F)
Dewpoint: 22.0°C (72°F) [RH = 89%]
Pressure (altimeter): 29.68 inches Hg (1005.0 mb)
Winds: from the NNE (20 degrees) at 13 MPH (11 knots; 5.7 m/s)
Visibility: 6 or more miles (10+ km)
Ceiling: 5000 feet AGL
Clouds: scattered clouds at 1000 feet AGL
broken clouds at 5000 feet AGL
broken clouds at 10000 feet AGL
Weather: -SHRA  (light rain showers)

METAR text: ROAH 230800Z 01014KT 9999 VCSH SCT010 BKN080 24/22 Q1004 RMK 4CU010 7AC080 A2967
Conditions at: ROAH (NAHA (CIV/JASDF), JP) observed 0800 UTC 23 June 2019
Temperature: 24.0°C (75°F)
Dewpoint: 22.0°C (72°F) [RH = 89%]
Pressure (altimeter): 29.65 inches Hg (1004.0 mb)
Winds: from the N (10 degrees) at 16 MPH (14 knots; 7.2 m/s)
Visibility: 6 or more miles (10+ km)
Ceiling: 8000 feet AGL
Clouds: scattered clouds at 1000 feet AGL
broken clouds at 8000 feet AGL
Weather: VCSH  (showers in vicinity)

METAR text: ROAH 230730Z 01016KT 9999 SCT010 BKN090 24/22 Q1004 RMK 4CU010 6AC090 A2966
Conditions at: ROAH (NAHA (CIV/JASDF), JP) observed 0730 UTC 23 June 2019
Temperature: 24.0°C (75°F)
Dewpoint: 22.0°C (72°F) [RH = 89%]
Pressure (altimeter): 29.65 inches Hg (1004.0 mb)
Winds: from the N (10 degrees) at 18 MPH (16 knots; 8.2 m/s)
Visibility: 6 or more miles (10+ km)
Ceiling: 9000 feet AGL
Clouds: scattered clouds at 1000 feet AGL
broken clouds at 9000 feet AGL
Weather: no significant weather observed at this time

METAR text: ROAH 230700Z 36016KT 9000 -SHRA SCT010 BKN020 24/22 Q1004 RMK 4CU010 6CU020 A2966
Conditions at: ROAH (NAHA (CIV/JASDF), JP) observed 0700 UTC 23 June 2019
Temperature: 24.0°C (75°F)
Dewpoint: 22.0°C (72°F) [RH = 89%]
Pressure (altimeter): 29.65 inches Hg (1004.0 mb)
Winds: from the N (360 degrees) at 18 MPH (16 knots; 8.2 m/s)
Visibility: 6 miles ( 9 km)
Ceiling: 2000 feet AGL
Clouds: scattered clouds at 1000 feet AGL
broken clouds at 2000 feet AGL
Weather: -SHRA  (light rain showers)

METAR text: ROAH 230630Z 01018KT 9999 -SHRA SCT010 BKN020 24/22 Q1004 RMK 4CU010 6CU020 A2967
Conditions at: ROAH (NAHA (CIV/JASDF), JP) observed 0630 UTC 23 June 2019
Temperature: 24.0°C (75°F)
Dewpoint: 22.0°C (72°F) [RH = 89%]
Pressure (altimeter): 29.65 inches Hg (1004.0 mb)
Winds: from the N (10 degrees) at 21 MPH (18 knots; 9.3 m/s)
Visibility: 6 or more miles (10+ km)
Ceiling: 2000 feet AGL
Clouds: scattered clouds at 1000 feet AGL
broken clouds at 2000 feet AGL
Weather: -SHRA  (light rain showers)

METAR text: ROAH 230600Z 36017KT 9000 -SHRA BKN010 BKN020 24/22 Q1005 RMK 5CU010 6CU020 A2968
Conditions at: ROAH (NAHA (CIV/JASDF), JP) observed 0600 UTC 23 June 2019
Temperature: 24.0°C (75°F)
Dewpoint: 22.0°C (72°F) [RH = 89%]
Pressure (altimeter): 29.68 inches Hg (1005.0 mb)
Winds: from the N (360 degrees) at 20 MPH (17 knots; 8.7 m/s)
Visibility: 6 miles ( 9 km)
Ceiling: 1000 feet AGL
Clouds: broken clouds at 1000 feet AGL
broken clouds at 2000 feet AGL
Weather: -SHRA  (light rain showers)

Forecast for: ROAH (NAHA (CIV/JASDF), JP)
Text: TAF ROAH 241712Z 2418/2600 18008KT 9999 FEW010 BKN020
Forecast period: 1800 UTC 24 June 2019 to 0000 UTC 26 June 2019
Forecast type: FROM: standard forecast or significant change
Winds: from the S (180 degrees) at 9 MPH (8 knots; 4.1 m/s)
Visibility: 6 or more miles 10+ km)
Ceiling: 2000 feet AGL
Clouds: few clouds at 1000 feet AGL
broken clouds at 2000 feet AGL
Weather: no significant weather forecast for this period
Text: TEMPO 2509/2518 FEW005 BKN008
Forecast period: 0900 to 1800 UTC 25 June 2019
Forecast type: TEMPORARY: The following changes expected for less than half the time period
Visibility: missing
Ceiling: 800 feet AGL
Clouds: few clouds at 500 feet AGL
broken clouds at 800 feet AGL
Weather: no significant weather forecast for this period
Text: TEMPO 2518/2600 4000 SHRA FEW005 BKN008 FEW020CB
Forecast period: 1800 UTC 25 June 2019 to 0000 UTC 26 June 2019
Forecast type: TEMPORARY: The following changes expected for less than half the time period
Visibility: 2.49 miles (4.01 km)
Ceiling: 800 feet AGL
Clouds: few clouds at 500 feet AGL
broken clouds at 800 feet AGL
few clouds at 2000 feet AGL
Weather: SHRA  (rain showers)